sensor_id;sensor_type;location;lat;lon;timestamp;P1;durP1;ratioP1;P2;durP2;ratioP2
41861;SDS011;27537;57.134;-2.136;2023-07-16T00:01:25;6.35;;;1.52;;
41861;SDS011;27537;57.134;-2.136;2023-07-16T00:03:53;5.70;;;1.45;;
41861;SDS011;27537;57.134;-2.136;2023-07-16T00:06:22;8.77;;;1.65;;
41861;SDS011;27537;57.134;-2.136;2023-07-16T00:08:50;8.77;;;1.80;;
41861;SDS011;27537;57.134;-2.136;2023-07-16T00:11:18;6.82;;;1.80;;
41861;SDS011;27537;57.134;-2.136;2023-07-16T00:13:46;5.53;;;1.25;;
41861;SDS011;27537;57.134;-2.136;2023-07-16T00:16:16;4.20;;;1.40;;
41861;SDS011;27537;57.134;-2.136;2023-07-16T00:18:44;6.03;;;1.50;;
41861;SDS011;27537;57.134;-2.136;2023-07-16T00:21:13;3.17;;;1.13;;
41861;SDS011;27537;57.134;-2.136;2023-07-16T00:23:41;6.40;;;1.45;;
41861;SDS011;27537;57.134;-2.136;2023-07-16T00:26:09;5.60;;;1.48;;
41861;SDS011;27537;57.134;-2.136;2023-07-16T00:28:37;5.97;;;1.67;;
41861;SDS011;27537;57.134;-2.136;2023-07-16T00:31:05;16.17;;;2.17;;
41861;SDS011;27537;57.134;-2.136;2023-07-16T00:33:33;5.18;;;1.50;;
41861;SDS011;27537;57.134;-2.136;2023-07-16T00:36:02;6.65;;;1.58;;
41861;SDS011;27537;57.134;-2.136;2023-07-16T00:38:30;6.05;;;1.60;;
41861;SDS011;27537;57.134;-2.136;2023-07-16T00:40:58;6.38;;;1.58;;
41861;SDS011;27537;57.134;-2.136;2023-07-16T00:43:26;5.13;;;1.50;;
41861;SDS011;27537;57.134;-2.136;2023-07-16T00:45:55;4.70;;;1.50;;
41861;SDS011;27537;57.134;-2.136;2023-07-16T00:48:23;6.18;;;1.40;;
41861;SDS011;27537;57.134;-2.136;2023-07-16T00:50:52;6.45;;;1.45;;
41861;SDS011;27537;57.134;-2.136;2023-07-16T00:53:20;5.63;;;2.03;;
41861;SDS011;27537;57.134;-2.136;2023-07-16T00:55:49;6.90;;;1.85;;
41861;SDS011;27537;57.134;-2.136;2023-07-16T00:58:16;7.63;;;1.75;;
41861;SDS011;27537;57.134;-2.136;2023-07-16T01:00:44;6.95;;;2.20;;
41861;SDS011;27537;57.134;-2.136;2023-07-16T01:03:12;6.22;;;1.70;;
41861;SDS011;27537;57.134;-2.136;2023-07-16T01:08:41;6.50;;;1.67;;
41861;SDS011;27537;57.134;-2.136;2023-07-16T01:11:24;8.38;;;1.60;;
41861;SDS011;27537;57.134;-2.136;2023-07-16T01:13:54;5.55;;;1.30;;
41861;SDS011;27537;57.134;-2.136;2023-07-16T01:16:24;3.65;;;1.38;;
41861;SDS011;27537;57.134;-2.136;2023-07-16T01:18:51;4.65;;;1.35;;
41861;SDS011;27537;57.134;-2.136;2023-07-16T01:21:19;3.42;;;1.33;;
41861;SDS011;27537;57.134;-2.136;2023-07-16T01:29:29;6.30;;;1.60;;
41861;SDS011;27537;57.134;-2.136;2023-07-16T01:32:04;5.57;;;1.50;;
41861;SDS011;27537;57.134;-2.136;2023-07-16T01:34:33;5.55;;;1.63;;
41861;SDS011;27537;57.134;-2.136;2023-07-16T01:37:02;9.32;;;1.75;;
41861;SDS011;27537;57.134;-2.136;2023-07-16T01:39:31;5.57;;;1.70;;
41861;SDS011;27537;57.134;-2.136;2023-07-16T01:42:02;4.95;;;1.50;;
41861;SDS011;27537;57.134;-2.136;2023-07-16T01:44:29;5.25;;;1.75;;
41861;SDS011;27537;57.134;-2.136;2023-07-16T01:49:51;6.38;;;1.60;;
41861;SDS011;27537;57.134;-2.136;2023-07-16T01:52:20;5.47;;;1.60;;
41861;SDS011;27537;57.134;-2.136;2023-07-16T01:54:50;6.85;;;1.80;;
41861;SDS011;27537;57.134;-2.136;2023-07-16T01:57:16;5.70;;;1.73;;
41861;SDS011;27537;57.134;-2.136;2023-07-16T01:59:43;6.82;;;1.90;;
41861;SDS011;27537;57.134;-2.136;2023-07-16T02:02:11;4.85;;;1.52;;
41861;SDS011;27537;57.134;-2.136;2023-07-16T02:04:37;4.75;;;1.55;;
41861;SDS011;27537;57.134;-2.136;2023-07-16T02:07:04;4.43;;;1.50;;
41861;SDS011;27537;57.134;-2.136;2023-07-16T02:09:33;5.50;;;1.90;;
41861;SDS011;27537;57.134;-2.136;2023-07-16T02:12:02;6.05;;;1.75;;
41861;SDS011;27537;57.134;-2.136;2023-07-16T02:14:29;5.60;;;1.60;;
41861;SDS011;27537;57.134;-2.136;2023-07-16T02:16:56;4.85;;;1.50;;
41861;SDS011;27537;57.134;-2.136;2023-07-16T02:19:22;4.57;;;1.40;;
41861;SDS011;27537;57.134;-2.136;2023-07-16T02:21:53;4.63;;;1.55;;
41861;SDS011;27537;57.134;-2.136;2023-07-16T02:24:21;4.28;;;1.38;;
41861;SDS011;27537;57.134;-2.136;2023-07-16T02:26:48;7.15;;;1.67;;
41861;SDS011;27537;57.134;-2.136;2023-07-16T02:29:18;5.82;;;1.50;;
41861;SDS011;27537;57.134;-2.136;2023-07-16T02:31:45;3.30;;;1.20;;
41861;SDS011;27537;57.134;-2.136;2023-07-16T02:34:12;5.43;;;1.35;;
41861;SDS011;27537;57.134;-2.136;2023-07-16T02:36:39;4.97;;;1.50;;
41861;SDS011;27537;57.134;-2.136;2023-07-16T02:39:06;4.40;;;1.27;;
41861;SDS011;27537;57.134;-2.136;2023-07-16T02:41:33;5.47;;;1.33;;
41861;SDS011;27537;57.134;-2.136;2023-07-16T02:44:04;4.57;;;1.42;;
41861;SDS011;27537;57.134;-2.136;2023-07-16T02:46:32;4.20;;;1.17;;
41861;SDS011;27537;57.134;-2.136;2023-07-16T02:48:59;4.05;;;1.30;;
41861;SDS011;27537;57.134;-2.136;2023-07-16T02:51:26;4.85;;;1.40;;
41861;SDS011;27537;57.134;-2.136;2023-07-16T02:53:53;2.83;;;1.35;;
41861;SDS011;27537;57.134;-2.136;2023-07-16T02:56:20;9.20;;;1.42;;
41861;SDS011;27537;57.134;-2.136;2023-07-16T02:58:48;4.28;;;1.10;;
41861;SDS011;27537;57.134;-2.136;2023-07-16T03:01:15;2.50;;;1.10;;
41861;SDS011;27537;57.134;-2.136;2023-07-16T03:03:42;8.77;;;1.50;;
41861;SDS011;27537;57.134;-2.136;2023-07-16T03:06:09;7.93;;;1.90;;
41861;SDS011;27537;57.134;-2.136;2023-07-16T03:08:36;7.03;;;1.60;;
41861;SDS011;27537;57.134;-2.136;2023-07-16T03:11:04;5.80;;;1.48;;
41861;SDS011;27537;57.134;-2.136;2023-07-16T03:13:31;4.95;;;1.52;;
41861;SDS011;27537;57.134;-2.136;2023-07-16T03:15:58;5.55;;;1.73;;
41861;SDS011;27537;57.134;-2.136;2023-07-16T03:18:29;3.85;;;1.23;;
41861;SDS011;27537;57.134;-2.136;2023-07-16T03:20:56;3.70;;;1.23;;
41861;SDS011;27537;57.134;-2.136;2023-07-16T03:23:23;5.32;;;1.42;;
41861;SDS011;27537;57.134;-2.136;2023-07-16T03:25:51;5.05;;;1.30;;
41861;SDS011;27537;57.134;-2.136;2023-07-16T03:28:18;4.80;;;1.33;;
41861;SDS011;27537;57.134;-2.136;2023-07-16T03:30:49;2.15;;;1.10;;
41861;SDS011;27537;57.134;-2.136;2023-07-16T03:33:17;8.13;;;1.83;;
41861;SDS011;27537;57.134;-2.136;2023-07-16T03:35:44;10.40;;;1.88;;
41861;SDS011;27537;57.134;-2.136;2023-07-16T03:38:16;4.18;;;1.20;;
41861;SDS011;27537;57.134;-2.136;2023-07-16T03:40:48;3.55;;;1.08;;
41861;SDS011;27537;57.134;-2.136;2023-07-16T03:43:22;3.38;;;1.33;;
41861;SDS011;27537;57.134;-2.136;2023-07-16T03:45:52;3.63;;;1.10;;
41861;SDS011;27537;57.134;-2.136;2023-07-16T03:48:20;2.85;;;1.20;;
41861;SDS011;27537;57.134;-2.136;2023-07-16T03:50:47;2.63;;;1.10;;
41861;SDS011;27537;57.134;-2.136;2023-07-16T03:53:15;4.50;;;1.30;;
41861;SDS011;27537;57.134;-2.136;2023-07-16T03:55:46;1.63;;;0.88;;
41861;SDS011;27537;57.134;-2.136;2023-07-16T03:58:14;3.28;;;0.90;;
41861;SDS011;27537;57.134;-2.136;2023-07-16T04:00:45;3.60;;;1.10;;
41861;SDS011;27537;57.134;-2.136;2023-07-16T04:03:13;4.20;;;1.30;;
41861;SDS011;27537;57.134;-2.136;2023-07-16T04:05:41;1.92;;;0.95;;
41861;SDS011;27537;57.134;-2.136;2023-07-16T04:08:09;5.25;;;1.20;;
41861;SDS011;27537;57.134;-2.136;2023-07-16T04:10:36;2.30;;;0.90;;
41861;SDS011;27537;57.134;-2.136;2023-07-16T04:13:04;2.35;;;0.95;;
41861;SDS011;27537;57.134;-2.136;2023-07-16T04:15:31;4.10;;;1.00;;
41861;SDS011;27537;57.134;-2.136;2023-07-16T04:18:00;3.83;;;1.02;;
41861;SDS011;27537;57.134;-2.136;2023-07-16T04:20:27;6.30;;;1.10;;
41861;SDS011;27537;57.134;-2.136;2023-07-16T04:22:55;1.70;;;0.95;;
41861;SDS011;27537;57.134;-2.136;2023-07-16T04:25:21;2.22;;;1.00;;
41861;SDS011;27537;57.134;-2.136;2023-07-16T04:27:48;3.92;;;1.25;;
41861;SDS011;27537;57.134;-2.136;2023-07-16T04:30:17;4.18;;;1.35;;
41861;SDS011;27537;57.134;-2.136;2023-07-16T04:32:45;3.60;;;1.10;;
41861;SDS011;27537;57.134;-2.136;2023-07-16T04:35:13;4.60;;;1.30;;
41861;SDS011;27537;57.134;-2.136;2023-07-16T04:37:41;3.28;;;1.55;;
41861;SDS011;27537;57.134;-2.136;2023-07-16T04:40:09;3.70;;;1.20;;
41861;SDS011;27537;57.134;-2.136;2023-07-16T04:42:37;3.08;;;1.10;;
41861;SDS011;27537;57.134;-2.136;2023-07-16T04:45:04;2.50;;;1.10;;
41861;SDS011;27537;57.134;-2.136;2023-07-16T04:47:31;1.98;;;0.93;;
41861;SDS011;27537;57.134;-2.136;2023-07-16T04:49:59;2.95;;;1.10;;
41861;SDS011;27537;57.134;-2.136;2023-07-16T04:52:26;3.47;;;1.10;;
41861;SDS011;27537;57.134;-2.136;2023-07-16T04:54:52;5.43;;;1.30;;
41861;SDS011;27537;57.134;-2.136;2023-07-16T04:57:19;3.72;;;1.25;;
41861;SDS011;27537;57.134;-2.136;2023-07-16T04:59:49;3.00;;;1.30;;
41861;SDS011;27537;57.134;-2.136;2023-07-16T05:02:16;5.10;;;1.10;;
41861;SDS011;27537;57.134;-2.136;2023-07-16T05:04:46;3.25;;;1.23;;
41861;SDS011;27537;57.134;-2.136;2023-07-16T05:07:18;3.37;;;1.27;;
41861;SDS011;27537;57.134;-2.136;2023-07-16T05:09:45;5.40;;;1.40;;
41861;SDS011;27537;57.134;-2.136;2023-07-16T05:12:12;2.50;;;1.02;;
41861;SDS011;27537;57.134;-2.136;2023-07-16T05:14:43;3.53;;;1.13;;
41861;SDS011;27537;57.134;-2.136;2023-07-16T05:17:14;3.78;;;1.30;;
41861;SDS011;27537;57.134;-2.136;2023-07-16T05:19:42;2.80;;;1.15;;
41861;SDS011;27537;57.134;-2.136;2023-07-16T05:22:10;4.53;;;1.27;;
41861;SDS011;27537;57.134;-2.136;2023-07-16T05:24:37;4.43;;;1.27;;
41861;SDS011;27537;57.134;-2.136;2023-07-16T05:27:05;3.63;;;1.20;;
41861;SDS011;27537;57.134;-2.136;2023-07-16T05:29:33;3.70;;;1.35;;
41861;SDS011;27537;57.134;-2.136;2023-07-16T05:32:01;4.53;;;1.40;;
41861;SDS011;27537;57.134;-2.136;2023-07-16T05:34:29;5.07;;;1.20;;
41861;SDS011;27537;57.134;-2.136;2023-07-16T05:36:56;3.60;;;1.20;;
41861;SDS011;27537;57.134;-2.136;2023-07-16T05:39:24;5.05;;;1.17;;
41861;SDS011;27537;57.134;-2.136;2023-07-16T05:41:51;3.33;;;1.10;;
41861;SDS011;27537;57.134;-2.136;2023-07-16T05:44:18;2.42;;;1.00;;
41861;SDS011;27537;57.134;-2.136;2023-07-16T05:46:46;3.13;;;1.20;;
41861;SDS011;27537;57.134;-2.136;2023-07-16T05:49:13;2.92;;;1.20;;
41861;SDS011;27537;57.134;-2.136;2023-07-16T05:51:41;2.30;;;0.80;;
41861;SDS011;27537;57.134;-2.136;2023-07-16T05:54:09;2.72;;;0.90;;
41861;SDS011;27537;57.134;-2.136;2023-07-16T05:56:37;2.88;;;1.00;;
41861;SDS011;27537;57.134;-2.136;2023-07-16T05:59:03;2.35;;;0.95;;
41861;SDS011;27537;57.134;-2.136;2023-07-16T06:01:30;2.05;;;0.95;;
41861;SDS011;27537;57.134;-2.136;2023-07-16T06:03:57;2.95;;;1.00;;
41861;SDS011;27537;57.134;-2.136;2023-07-16T06:06:24;3.72;;;1.00;;
41861;SDS011;27537;57.134;-2.136;2023-07-16T06:08:56;3.28;;;1.00;;
41861;SDS011;27537;57.134;-2.136;2023-07-16T06:11:24;2.53;;;1.00;;
41861;SDS011;27537;57.134;-2.136;2023-07-16T06:13:55;4.20;;;1.35;;
41861;SDS011;27537;57.134;-2.136;2023-07-16T06:16:25;1.90;;;0.90;;
41861;SDS011;27537;57.134;-2.136;2023-07-16T06:18:54;3.30;;;1.10;;
41861;SDS011;27537;57.134;-2.136;2023-07-16T06:21:21;1.88;;;0.90;;
41861;SDS011;27537;57.134;-2.136;2023-07-16T06:23:48;1.23;;;0.80;;
41861;SDS011;27537;57.134;-2.136;2023-07-16T06:26:16;4.57;;;1.10;;
41861;SDS011;27537;57.134;-2.136;2023-07-16T06:28:45;2.03;;;0.90;;
41861;SDS011;27537;57.134;-2.136;2023-07-16T06:31:16;2.22;;;0.80;;
41861;SDS011;27537;57.134;-2.136;2023-07-16T06:33:45;3.28;;;1.00;;
41861;SDS011;27537;57.134;-2.136;2023-07-16T06:36:14;2.10;;;0.98;;
41861;SDS011;27537;57.134;-2.136;2023-07-16T06:38:41;2.95;;;0.90;;
41861;SDS011;27537;57.134;-2.136;2023-07-16T06:41:10;2.15;;;0.90;;
41861;SDS011;27537;57.134;-2.136;2023-07-16T06:43:38;2.08;;;0.90;;
41861;SDS011;27537;57.134;-2.136;2023-07-16T06:46:07;3.47;;;1.13;;
41861;SDS011;27537;57.134;-2.136;2023-07-16T06:48:34;4.50;;;1.15;;
41861;SDS011;27537;57.134;-2.136;2023-07-16T06:51:03;3.42;;;0.95;;
41861;SDS011;27537;57.134;-2.136;2023-07-16T06:53:31;1.73;;;0.80;;
41861;SDS011;27537;57.134;-2.136;2023-07-16T06:55:59;1.52;;;0.73;;
41861;SDS011;27537;57.134;-2.136;2023-07-16T06:58:32;3.33;;;0.98;;
41861;SDS011;27537;57.134;-2.136;2023-07-16T07:01:03;2.17;;;0.80;;
41861;SDS011;27537;57.134;-2.136;2023-07-16T07:03:31;3.45;;;0.70;;
41861;SDS011;27537;57.134;-2.136;2023-07-16T07:06:03;1.73;;;0.73;;
41861;SDS011;27537;57.134;-2.136;2023-07-16T07:08:30;2.15;;;0.80;;
41861;SDS011;27537;57.134;-2.136;2023-07-16T07:10:58;2.50;;;1.10;;
41861;SDS011;27537;57.134;-2.136;2023-07-16T07:13:24;2.10;;;0.80;;
41861;SDS011;27537;57.134;-2.136;2023-07-16T07:15:52;1.88;;;0.75;;
41861;SDS011;27537;57.134;-2.136;2023-07-16T07:18:18;1.73;;;0.85;;
41861;SDS011;27537;57.134;-2.136;2023-07-16T07:20:45;2.28;;;0.82;;
41861;SDS011;27537;57.134;-2.136;2023-07-16T07:23:14;2.28;;;0.70;;
41861;SDS011;27537;57.134;-2.136;2023-07-16T07:25:42;2.25;;;0.80;;
41861;SDS011;27537;57.134;-2.136;2023-07-16T07:28:08;3.85;;;0.90;;
41861;SDS011;27537;57.134;-2.136;2023-07-16T07:30:37;1.48;;;0.70;;
41861;SDS011;27537;57.134;-2.136;2023-07-16T07:33:03;1.35;;;0.70;;
41861;SDS011;27537;57.134;-2.136;2023-07-16T07:35:30;2.80;;;0.80;;
41861;SDS011;27537;57.134;-2.136;2023-07-16T07:37:58;1.63;;;0.70;;
41861;SDS011;27537;57.134;-2.136;2023-07-16T07:40:25;1.67;;;0.60;;
41861;SDS011;27537;57.134;-2.136;2023-07-16T07:42:52;2.17;;;0.75;;
41861;SDS011;27537;57.134;-2.136;2023-07-16T07:45:19;1.73;;;0.82;;
41861;SDS011;27537;57.134;-2.136;2023-07-16T07:47:46;2.10;;;0.85;;
41861;SDS011;27537;57.134;-2.136;2023-07-16T07:50:13;1.65;;;0.80;;
41861;SDS011;27537;57.134;-2.136;2023-07-16T07:52:40;3.10;;;1.05;;
41861;SDS011;27537;57.134;-2.136;2023-07-16T07:55:07;1.48;;;0.95;;
41861;SDS011;27537;57.134;-2.136;2023-07-16T07:57:34;3.70;;;0.95;;
41861;SDS011;27537;57.134;-2.136;2023-07-16T08:00:01;4.10;;;0.90;;
41861;SDS011;27537;57.134;-2.136;2023-07-16T08:02:28;3.00;;;0.90;;
41861;SDS011;27537;57.134;-2.136;2023-07-16T08:04:55;2.63;;;0.70;;
41861;SDS011;27537;57.134;-2.136;2023-07-16T08:07:22;2.50;;;0.80;;
41861;SDS011;27537;57.134;-2.136;2023-07-16T08:09:49;2.45;;;0.90;;
41861;SDS011;27537;57.134;-2.136;2023-07-16T08:12:16;2.15;;;0.80;;
41861;SDS011;27537;57.134;-2.136;2023-07-16T08:14:43;2.72;;;0.85;;
41861;SDS011;27537;57.134;-2.136;2023-07-16T08:17:10;3.88;;;1.13;;
41861;SDS011;27537;57.134;-2.136;2023-07-16T08:19:38;1.10;;;0.70;;
41861;SDS011;27537;57.134;-2.136;2023-07-16T08:22:05;2.72;;;0.95;;
41861;SDS011;27537;57.134;-2.136;2023-07-16T08:24:32;1.73;;;0.73;;
41861;SDS011;27537;57.134;-2.136;2023-07-16T08:26:59;1.40;;;0.80;;
41861;SDS011;27537;57.134;-2.136;2023-07-16T08:29:26;4.07;;;0.90;;
41861;SDS011;27537;57.134;-2.136;2023-07-16T08:31:52;1.45;;;0.70;;
41861;SDS011;27537;57.134;-2.136;2023-07-16T08:34:19;2.00;;;0.90;;
41861;SDS011;27537;57.134;-2.136;2023-07-16T08:36:45;1.23;;;0.77;;
41861;SDS011;27537;57.134;-2.136;2023-07-16T08:39:14;2.15;;;0.80;;
41861;SDS011;27537;57.134;-2.136;2023-07-16T08:41:43;2.35;;;0.90;;
41861;SDS011;27537;57.134;-2.136;2023-07-16T08:44:10;5.32;;;0.90;;
41861;SDS011;27537;57.134;-2.136;2023-07-16T08:46:40;2.42;;;0.90;;
41861;SDS011;27537;57.134;-2.136;2023-07-16T08:49:07;3.08;;;0.80;;
41861;SDS011;27537;57.134;-2.136;2023-07-16T08:51:35;1.50;;;0.70;;
41861;SDS011;27537;57.134;-2.136;2023-07-16T08:54:03;3.05;;;0.80;;
41861;SDS011;27537;57.134;-2.136;2023-07-16T08:56:29;2.67;;;0.70;;
41861;SDS011;27537;57.134;-2.136;2023-07-16T08:58:56;3.30;;;0.80;;
41861;SDS011;27537;57.134;-2.136;2023-07-16T09:01:24;4.03;;;1.10;;
41861;SDS011;27537;57.134;-2.136;2023-07-16T09:03:51;1.15;;;0.63;;
41861;SDS011;27537;57.134;-2.136;2023-07-16T09:06:18;1.88;;;0.80;;
41861;SDS011;27537;57.134;-2.136;2023-07-16T09:08:45;4.43;;;0.90;;
41861;SDS011;27537;57.134;-2.136;2023-07-16T09:11:11;3.55;;;0.80;;
41861;SDS011;27537;57.134;-2.136;2023-07-16T09:13:45;2.20;;;0.90;;
41861;SDS011;27537;57.134;-2.136;2023-07-16T09:16:12;3.55;;;0.80;;
41861;SDS011;27537;57.134;-2.136;2023-07-16T09:18:39;2.55;;;0.98;;
41861;SDS011;27537;57.134;-2.136;2023-07-16T09:21:10;2.80;;;1.02;;
41861;SDS011;27537;57.134;-2.136;2023-07-16T09:23:49;2.20;;;0.80;;
41861;SDS011;27537;57.134;-2.136;2023-07-16T09:26:19;2.28;;;0.70;;
41861;SDS011;27537;57.134;-2.136;2023-07-16T09:28:52;1.27;;;0.70;;
41861;SDS011;27537;57.134;-2.136;2023-07-16T09:31:19;1.75;;;0.90;;
41861;SDS011;27537;57.134;-2.136;2023-07-16T09:33:48;1.70;;;0.70;;
41861;SDS011;27537;57.134;-2.136;2023-07-16T09:36:23;1.35;;;0.70;;
41861;SDS011;27537;57.134;-2.136;2023-07-16T09:38:53;1.17;;;0.70;;
41861;SDS011;27537;57.134;-2.136;2023-07-16T09:41:22;1.17;;;0.80;;
41861;SDS011;27537;57.134;-2.136;2023-07-16T09:43:52;1.63;;;0.70;;
41861;SDS011;27537;57.134;-2.136;2023-07-16T09:46:21;1.77;;;0.80;;
41861;SDS011;27537;57.134;-2.136;2023-07-16T09:48:57;1.52;;;0.70;;
41861;SDS011;27537;57.134;-2.136;2023-07-16T09:51:25;1.52;;;0.73;;
41861;SDS011;27537;57.134;-2.136;2023-07-16T09:53:56;2.42;;;0.80;;
41861;SDS011;27537;57.134;-2.136;2023-07-16T09:56:28;1.33;;;0.70;;
41861;SDS011;27537;57.134;-2.136;2023-07-16T09:59:08;1.63;;;0.70;;
41861;SDS011;27537;57.134;-2.136;2023-07-16T10:01:38;1.02;;;0.63;;
41861;SDS011;27537;57.134;-2.136;2023-07-16T10:06:54;1.98;;;0.80;;
41861;SDS011;27537;57.134;-2.136;2023-07-16T10:09:33;2.53;;;0.90;;
41861;SDS011;27537;57.134;-2.136;2023-07-16T10:12:08;1.50;;;0.77;;
41861;SDS011;27537;57.134;-2.136;2023-07-16T10:14:50;1.77;;;0.80;;
41861;SDS011;27537;57.134;-2.136;2023-07-16T10:17:22;3.47;;;1.17;;
41861;SDS011;27537;57.134;-2.136;2023-07-16T10:22:18;4.43;;;1.00;;
41861;SDS011;27537;57.134;-2.136;2023-07-16T10:24:51;1.83;;;0.70;;
41861;SDS011;27537;57.134;-2.136;2023-07-16T10:27:29;1.42;;;0.80;;
41861;SDS011;27537;57.134;-2.136;2023-07-16T10:30:00;2.72;;;0.70;;
41861;SDS011;27537;57.134;-2.136;2023-07-16T10:32:31;2.38;;;0.70;;
41861;SDS011;27537;57.134;-2.136;2023-07-16T10:35:00;3.53;;;0.95;;
41861;SDS011;27537;57.134;-2.136;2023-07-16T10:37:31;1.30;;;0.63;;
41861;SDS011;27537;57.134;-2.136;2023-07-16T10:40:00;2.30;;;0.77;;
41861;SDS011;27537;57.134;-2.136;2023-07-16T10:42:30;2.22;;;0.82;;
41861;SDS011;27537;57.134;-2.136;2023-07-16T10:44:58;1.95;;;0.73;;
41861;SDS011;27537;57.134;-2.136;2023-07-16T10:47:30;2.28;;;0.93;;
41861;SDS011;27537;57.134;-2.136;2023-07-16T10:49:58;1.25;;;0.60;;
41861;SDS011;27537;57.134;-2.136;2023-07-16T10:52:27;2.00;;;0.70;;
41861;SDS011;27537;57.134;-2.136;2023-07-16T10:54:54;1.55;;;0.70;;
41861;SDS011;27537;57.134;-2.136;2023-07-16T10:57:21;1.27;;;0.55;;
41861;SDS011;27537;57.134;-2.136;2023-07-16T10:59:50;1.75;;;0.60;;
41861;SDS011;27537;57.134;-2.136;2023-07-16T11:02:20;2.05;;;0.50;;
41861;SDS011;27537;57.134;-2.136;2023-07-16T11:04:48;0.80;;;0.43;;
41861;SDS011;27537;57.134;-2.136;2023-07-16T11:07:16;1.27;;;0.68;;
41861;SDS011;27537;57.134;-2.136;2023-07-16T11:09:44;1.73;;;0.70;;
41861;SDS011;27537;57.134;-2.136;2023-07-16T11:12:16;1.67;;;0.60;;
41861;SDS011;27537;57.134;-2.136;2023-07-16T11:14:46;1.65;;;0.82;;
41861;SDS011;27537;57.134;-2.136;2023-07-16T11:17:15;1.50;;;0.70;;
41861;SDS011;27537;57.134;-2.136;2023-07-16T11:19:47;1.10;;;0.60;;
41861;SDS011;27537;57.134;-2.136;2023-07-16T11:22:15;1.67;;;0.60;;
41861;SDS011;27537;57.134;-2.136;2023-07-16T11:27:21;1.13;;;0.60;;
41861;SDS011;27537;57.134;-2.136;2023-07-16T11:29:51;0.82;;;0.50;;
41861;SDS011;27537;57.134;-2.136;2023-07-16T11:32:34;1.08;;;0.50;;
41861;SDS011;27537;57.134;-2.136;2023-07-16T11:35:06;1.90;;;0.57;;
41861;SDS011;27537;57.134;-2.136;2023-07-16T11:37:35;1.33;;;0.60;;
41861;SDS011;27537;57.134;-2.136;2023-07-16T11:40:05;1.67;;;0.73;;
41861;SDS011;27537;57.134;-2.136;2023-07-16T11:42:34;1.83;;;0.80;;
41861;SDS011;27537;57.134;-2.136;2023-07-16T11:45:03;1.55;;;0.73;;
41861;SDS011;27537;57.134;-2.136;2023-07-16T11:47:32;1.02;;;0.60;;
41861;SDS011;27537;57.134;-2.136;2023-07-16T11:49:59;3.85;;;1.08;;
41861;SDS011;27537;57.134;-2.136;2023-07-16T11:52:27;5.25;;;1.20;;
41861;SDS011;27537;57.134;-2.136;2023-07-16T11:54:56;8.32;;;1.92;;
41861;SDS011;27537;57.134;-2.136;2023-07-16T11:57:27;2.67;;;0.90;;
41861;SDS011;27537;57.134;-2.136;2023-07-16T11:59:54;3.10;;;0.80;;
41861;SDS011;27537;57.134;-2.136;2023-07-16T12:02:22;1.95;;;0.80;;
41861;SDS011;27537;57.134;-2.136;2023-07-16T12:04:49;2.38;;;0.80;;
41861;SDS011;27537;57.134;-2.136;2023-07-16T12:07:29;1.27;;;0.70;;
41861;SDS011;27537;57.134;-2.136;2023-07-16T12:10:03;3.55;;;0.82;;
41861;SDS011;27537;57.134;-2.136;2023-07-16T12:12:33;3.38;;;0.60;;
41861;SDS011;27537;57.134;-2.136;2023-07-16T12:15:06;2.70;;;0.80;;
41861;SDS011;27537;57.134;-2.136;2023-07-16T12:17:35;2.28;;;1.02;;
41861;SDS011;27537;57.134;-2.136;2023-07-16T12:20:02;1.13;;;0.68;;
41861;SDS011;27537;57.134;-2.136;2023-07-16T12:22:31;1.42;;;0.68;;
41861;SDS011;27537;57.134;-2.136;2023-07-16T12:24:58;3.33;;;0.77;;
41861;SDS011;27537;57.134;-2.136;2023-07-16T12:27:26;1.80;;;0.73;;
41861;SDS011;27537;57.134;-2.136;2023-07-16T12:29:53;2.95;;;1.17;;
41861;SDS011;27537;57.134;-2.136;2023-07-16T12:32:22;2.92;;;0.88;;
41861;SDS011;27537;57.134;-2.136;2023-07-16T12:34:51;1.90;;;0.80;;
41861;SDS011;27537;57.134;-2.136;2023-07-16T12:37:19;3.95;;;0.82;;
41861;SDS011;27537;57.134;-2.136;2023-07-16T12:39:46;3.53;;;0.90;;
41861;SDS011;27537;57.134;-2.136;2023-07-16T12:42:13;0.82;;;0.60;;
41861;SDS011;27537;57.134;-2.136;2023-07-16T12:44:40;2.05;;;0.73;;
41861;SDS011;27537;57.134;-2.136;2023-07-16T12:47:07;1.27;;;0.65;;
41861;SDS011;27537;57.134;-2.136;2023-07-16T12:49:36;1.63;;;0.70;;
41861;SDS011;27537;57.134;-2.136;2023-07-16T12:52:03;1.10;;;0.60;;
41861;SDS011;27537;57.134;-2.136;2023-07-16T12:54:30;2.33;;;0.60;;
41861;SDS011;27537;57.134;-2.136;2023-07-16T12:57:01;1.38;;;0.70;;
41861;SDS011;27537;57.134;-2.136;2023-07-16T12:59:30;1.05;;;0.52;;
41861;SDS011;27537;57.134;-2.136;2023-07-16T13:01:58;0.70;;;0.47;;
41861;SDS011;27537;57.134;-2.136;2023-07-16T13:04:29;1.85;;;0.73;;
41861;SDS011;27537;57.134;-2.136;2023-07-16T13:06:56;2.92;;;0.80;;
41861;SDS011;27537;57.134;-2.136;2023-07-16T13:09:25;1.42;;;0.60;;
41861;SDS011;27537;57.134;-2.136;2023-07-16T13:11:53;0.82;;;0.60;;
41861;SDS011;27537;57.134;-2.136;2023-07-16T13:14:21;4.15;;;0.80;;
41861;SDS011;27537;57.134;-2.136;2023-07-16T13:16:50;2.75;;;0.60;;
41861;SDS011;27537;57.134;-2.136;2023-07-16T13:19:18;0.98;;;0.60;;
41861;SDS011;27537;57.134;-2.136;2023-07-16T13:21:47;1.85;;;0.77;;
41861;SDS011;27537;57.134;-2.136;2023-07-16T13:24:15;2.17;;;0.70;;
41861;SDS011;27537;57.134;-2.136;2023-07-16T13:26:43;1.45;;;0.70;;
41861;SDS011;27537;57.134;-2.136;2023-07-16T13:29:14;1.35;;;0.50;;
41861;SDS011;27537;57.134;-2.136;2023-07-16T13:31:44;0.85;;;0.60;;
41861;SDS011;27537;57.134;-2.136;2023-07-16T13:34:13;2.22;;;0.70;;
41861;SDS011;27537;57.134;-2.136;2023-07-16T13:36:40;1.30;;;0.52;;
41861;SDS011;27537;57.134;-2.136;2023-07-16T13:39:08;1.13;;;0.65;;
41861;SDS011;27537;57.134;-2.136;2023-07-16T13:41:36;1.58;;;0.60;;
41861;SDS011;27537;57.134;-2.136;2023-07-16T13:44:04;0.77;;;0.50;;
41861;SDS011;27537;57.134;-2.136;2023-07-16T13:46:32;1.15;;;0.50;;
41861;SDS011;27537;57.134;-2.136;2023-07-16T13:49:00;0.77;;;0.50;;
41861;SDS011;27537;57.134;-2.136;2023-07-16T13:51:27;1.45;;;0.98;;
41861;SDS011;27537;57.134;-2.136;2023-07-16T13:53:54;2.38;;;0.70;;
41861;SDS011;27537;57.134;-2.136;2023-07-16T13:56:20;0.77;;;0.50;;
41861;SDS011;27537;57.134;-2.136;2023-07-16T13:58:47;1.05;;;0.60;;
41861;SDS011;27537;57.134;-2.136;2023-07-16T14:01:14;0.68;;;0.50;;
41861;SDS011;27537;57.134;-2.136;2023-07-16T14:03:41;1.08;;;0.60;;
41861;SDS011;27537;57.134;-2.136;2023-07-16T14:06:08;2.65;;;0.60;;
41861;SDS011;27537;57.134;-2.136;2023-07-16T14:08:34;1.35;;;0.50;;
41861;SDS011;27537;57.134;-2.136;2023-07-16T14:11:02;1.52;;;0.60;;
41861;SDS011;27537;57.134;-2.136;2023-07-16T14:13:29;1.73;;;0.50;;
41861;SDS011;27537;57.134;-2.136;2023-07-16T14:15:56;1.85;;;0.63;;
41861;SDS011;27537;57.134;-2.136;2023-07-16T14:18:23;1.13;;;0.60;;
41861;SDS011;27537;57.134;-2.136;2023-07-16T14:20:50;2.15;;;0.60;;
41861;SDS011;27537;57.134;-2.136;2023-07-16T14:23:17;0.50;;;0.50;;
41861;SDS011;27537;57.134;-2.136;2023-07-16T14:25:43;2.17;;;0.70;;
41861;SDS011;27537;57.134;-2.136;2023-07-16T14:28:10;0.98;;;0.60;;
41861;SDS011;27537;57.134;-2.136;2023-07-16T14:30:37;1.30;;;0.68;;
41861;SDS011;27537;57.134;-2.136;2023-07-16T14:33:03;0.98;;;0.60;;
41861;SDS011;27537;57.134;-2.136;2023-07-16T14:35:32;0.75;;;0.55;;
41861;SDS011;27537;57.134;-2.136;2023-07-16T14:38:03;2.30;;;0.77;;
41861;SDS011;27537;57.134;-2.136;2023-07-16T14:40:30;0.95;;;0.68;;
41861;SDS011;27537;57.134;-2.136;2023-07-16T14:42:57;3.50;;;0.70;;
41861;SDS011;27537;57.134;-2.136;2023-07-16T14:45:24;1.52;;;0.70;;
41861;SDS011;27537;57.134;-2.136;2023-07-16T14:47:51;1.35;;;0.60;;
41861;SDS011;27537;57.134;-2.136;2023-07-16T14:50:18;1.10;;;0.57;;
41861;SDS011;27537;57.134;-2.136;2023-07-16T14:52:44;1.10;;;0.57;;
41861;SDS011;27537;57.134;-2.136;2023-07-16T14:55:11;0.68;;;0.52;;
41861;SDS011;27537;57.134;-2.136;2023-07-16T14:57:38;0.98;;;0.55;;
41861;SDS011;27537;57.134;-2.136;2023-07-16T15:00:05;0.50;;;0.50;;